Time,TemperatureF,DewpointF,PressureIn,WindDirection,WindDirectionDegrees,WindSpeedMPH,WindSpeedGustMPH,Humidity,HourlyPrecipIn,Conditions,Clouds,dailyrainin,SoftwareType,DateUTC
2013-06-28 00:06:00,-999.0,-99.9,29.97,North,-999,0.0,0.0,-999,0.00,,,0.00,weatherlink.com 1.10,2013-06-28 07:06:00,
2013-06-28 00:21:00,-999.0,-99.9,29.97,North,-999,0.0,0.0,-999,0.00,,,0.00,weatherlink.com 1.10,2013-06-28 07:21:00,
2013-06-28 00:36:00,-999.0,-99.9,29.97,North,-999,0.0,0.0,-999,0.00,,,0.00,weatherlink.com 1.10,2013-06-28 07:36:00,
2013-06-28 00:51:00,-999.0,-99.9,29.96,North,-999,0.0,0.0,-999,0.00,,,0.00,weatherlink.com 1.10,2013-06-28 07:51:00,
2013-06-28 01:06:00,-999.0,-99.9,29.96,North,-999,0.0,0.0,-999,0.00,,,0.00,weatherlink.com 1.10,2013-06-28 08:06:00,
2013-06-28 01:21:00,-999.0,-99.9,29.96,North,-999,0.0,0.0,-999,0.00,,,0.00,weatherlink.com 1.10,2013-06-28 08:21:00,
2013-06-28 01:36:00,-999.0,-99.9,29.96,North,-999,0.0,0.0,-999,0.00,,,0.00,weatherlink.com 1.10,2013-06-28 08:36:00,
2013-06-28 01:51:00,-999.0,-99.9,29.96,North,-999,0.0,0.0,-999,0.00,,,0.00,weatherlink.com 1.10,2013-06-28 08:51:00,
2013-06-28 02:07:00,-999.0,-99.9,29.96,North,-999,0.0,0.0,-999,0.00,,,0.00,weatherlink.com 1.10,2013-06-28 09:07:00,
2013-06-28 02:22:00,-999.0,-99.9,29.96,North,-999,0.0,0.0,-999,0.00,,,0.00,weatherlink.com 1.10,2013-06-28 09:22:00,
2013-06-28 02:37:00,-999.0,-99.9,29.96,North,-999,0.0,0.0,-999,0.00,,,0.00,weatherlink.com 1.10,2013-06-28 09:37:00,
2013-06-28 02:52:00,-999.0,-99.9,29.96,North,-999,0.0,0.0,-999,0.00,,,0.00,weatherlink.com 1.10,2013-06-28 09:52:00,
2013-06-28 03:07:00,-999.0,-99.9,29.96,North,-999,0.0,0.0,-999,0.00,,,0.00,weatherlink.com 1.10,2013-06-28 10:07:00,
2013-06-28 03:22:00,-999.0,-99.9,29.96,North,-999,0.0,0.0,-999,0.00,,,0.00,weatherlink.com 1.10,2013-06-28 10:22:00,
2013-06-28 03:37:00,-999.0,-99.9,29.96,North,-999,0.0,0.0,-999,0.00,,,0.00,weatherlink.com 1.10,2013-06-28 10:37:00,
2013-06-28 03:52:00,-999.0,-99.9,29.95,North,-999,0.0,0.0,-999,0.00,,,0.00,weatherlink.com 1.10,2013-06-28 10:52:00,
2013-06-28 04:07:00,-999.0,-99.9,29.95,North,-999,0.0,0.0,-999,0.00,,,0.00,weatherlink.com 1.10,2013-06-28 11:07:00,
2013-06-28 04:22:00,-999.0,-99.9,29.95,North,-999,0.0,0.0,-999,0.00,,,0.00,weatherlink.com 1.10,2013-06-28 11:22:00,
2013-06-28 04:37:00,-999.0,-99.9,29.95,North,-999,0.0,0.0,-999,0.00,,,0.00,weatherlink.com 1.10,2013-06-28 11:37:00,
2013-06-28 04:52:00,-999.0,-99.9,29.94,North,-999,0.0,0.0,-999,0.00,,,0.00,weatherlink.com 1.10,2013-06-28 11:52:00,
2013-06-28 05:07:00,-999.0,-99.9,29.95,North,-999,0.0,0.0,-999,0.00,,,0.00,weatherlink.com 1.10,2013-06-28 12:07:00,
2013-06-28 05:23:00,-999.0,-99.9,29.94,North,-999,0.0,0.0,-999,0.00,,,0.00,weatherlink.com 1.10,2013-06-28 12:23:00,
2013-06-28 05:38:00,-999.0,-99.9,29.95,North,-999,0.0,0.0,-999,0.00,,,0.00,weatherlink.com 1.10,2013-06-28 12:38:00,
2013-06-28 05:53:00,-999.0,-99.9,29.95,North,-999,0.0,0.0,-999,0.00,,,0.00,weatherlink.com 1.10,2013-06-28 12:53:00,
2013-06-28 06:08:00,-999.0,-99.9,29.95,North,-999,0.0,0.0,-999,0.00,,,0.00,weatherlink.com 1.10,2013-06-28 13:08:00,
2013-06-28 06:23:00,61.1,59.0,29.95,NW,316,0.0,2.0,93,0.00,,,0.00,weatherlink.com 1.10,2013-06-28 13:23:00,
2013-06-28 06:38:00,62.1,60.0,29.96,NW,316,2.0,3.0,94,0.00,,,0.00,weatherlink.com 1.10,2013-06-28 13:38:00,
2013-06-28 06:53:00,63.3,61.0,29.96,NW,317,0.0,5.0,93,0.00,,,0.00,weatherlink.com 1.10,2013-06-28 13:53:00,
2013-06-28 07:08:00,64.7,62.0,29.96,NW,317,0.0,2.0,92,0.00,,,0.00,weatherlink.com 1.10,2013-06-28 14:08:00,
2013-06-28 07:23:00,66.5,63.0,29.96,North,360,1.0,3.0,89,0.00,,,0.00,weatherlink.com 1.10,2013-06-28 14:23:00,
2013-06-28 07:38:00,68.4,64.0,29.96,North,360,0.0,3.0,86,0.00,,,0.00,weatherlink.com 1.10,2013-06-28 14:38:00,
2013-06-28 07:53:00,70.5,66.0,29.96,NNW,331,3.0,4.0,84,0.00,,,0.00,weatherlink.com 1.10,2013-06-28 14:53:00,
2013-06-28 08:08:00,73.2,67.0,29.96,North,360,3.0,4.0,80,0.00,,,0.00,weatherlink.com 1.10,2013-06-28 15:08:00,
2013-06-28 08:23:00,75.7,68.0,29.96,NNW,333,2.0,4.0,77,0.00,,,0.00,weatherlink.com 1.10,2013-06-28 15:23:00,
2013-06-28 08:38:00,78.0,69.0,29.96,NNW,336,0.0,3.0,73,0.00,,,0.00,weatherlink.com 1.10,2013-06-28 15:38:00,
2013-06-28 08:54:00,79.5,69.0,29.96,NNW,338,0.0,5.0,71,0.00,,,0.00,weatherlink.com 1.10,2013-06-28 15:54:00,
2013-06-28 09:09:00,80.6,68.0,29.96,NW,311,3.0,5.0,66,0.00,,,0.00,weatherlink.com 1.10,2013-06-28 16:09:00,
2013-06-28 09:24:00,81.8,70.0,29.96,NNW,338,0.0,6.0,68,0.00,,,0.00,weatherlink.com 1.10,2013-06-28 16:24:00,
2013-06-28 09:39:00,82.9,70.0,29.96,WNW,300,2.0,5.0,66,0.00,,,0.00,weatherlink.com 1.10,2013-06-28 16:39:00,
2013-06-28 09:54:00,84.5,71.0,29.96,North,5,2.0,4.0,65,0.00,,,0.00,weatherlink.com 1.10,2013-06-28 16:54:00,
2013-06-28 10:09:00,85.5,72.0,29.95,WNW,289,1.0,6.0,64,0.00,,,0.00,weatherlink.com 1.10,2013-06-28 17:09:00,
2013-06-28 10:24:00,86.9,71.0,29.95,NNW,334,1.0,6.0,60,0.00,,,0.00,weatherlink.com 1.10,2013-06-28 17:24:00,
2013-06-28 10:39:00,87.7,71.0,29.95,NW,319,3.0,5.0,58,0.00,,,0.00,weatherlink.com 1.10,2013-06-28 17:39:00,
2013-06-28 10:54:00,88.9,70.0,29.95,NW,304,2.0,9.0,53,0.00,,,0.00,weatherlink.com 1.10,2013-06-28 17:54:00,
2013-06-28 11:09:00,90.0,71.0,29.94,NNW,332,4.0,6.0,54,0.00,,,0.00,weatherlink.com 1.10,2013-06-28 18:09:00,
2013-06-28 11:24:00,91.2,72.0,29.94,NNW,347,1.0,6.0,53,0.00,,,0.00,weatherlink.com 1.10,2013-06-28 18:24:00,
2013-06-28 11:39:00,91.8,71.0,29.94,North,355,5.0,8.0,51,0.00,,,0.00,weatherlink.com 1.10,2013-06-28 18:39:00,
2013-06-28 11:54:00,92.5,72.0,29.94,WNW,286,4.0,5.0,51,0.00,,,0.00,weatherlink.com 1.10,2013-06-28 18:54:00,
2013-06-28 12:09:00,93.0,74.0,29.94,NNW,342,1.0,8.0,54,0.00,,,0.00,weatherlink.com 1.10,2013-06-28 19:09:00,
2013-06-28 12:24:00,94.0,73.0,29.93,NNE,13,2.0,6.0,50,0.00,,,0.00,weatherlink.com 1.10,2013-06-28 19:24:00,
2013-06-28 12:39:00,94.5,73.0,29.93,NNW,331,3.0,5.0,50,0.00,,,0.00,weatherlink.com 1.10,2013-06-28 19:39:00,
2013-06-28 12:54:00,95.2,72.0,29.93,NNW,337,0.0,6.0,47,0.00,,,0.00,weatherlink.com 1.10,2013-06-28 19:54:00,
2013-06-28 13:10:00,96.2,73.0,29.92,NW,312,2.0,6.0,48,0.00,,,0.00,weatherlink.com 1.10,2013-06-28 20:10:00,
2013-06-28 13:25:00,96.8,71.0,29.91,NW,312,3.0,6.0,44,0.00,,,0.00,weatherlink.com 1.10,2013-06-28 20:25:00,
2013-06-28 13:40:00,97.7,71.0,29.91,NW,325,2.0,5.0,42,0.00,,,0.00,weatherlink.com 1.10,2013-06-28 20:40:00,
2013-06-28 13:55:00,98.2,69.0,29.91,WSW,243,3.0,5.0,38,0.00,,,0.00,weatherlink.com 1.10,2013-06-28 20:55:00,
2013-06-28 14:10:00,98.9,71.0,29.90,NNW,344,0.0,6.0,41,0.00,,,0.00,weatherlink.com 1.10,2013-06-28 21:10:00,
2013-06-28 14:25:00,99.6,75.0,29.90,NNE,31,1.0,4.0,45,0.00,,,0.00,weatherlink.com 1.10,2013-06-28 21:25:00,
2013-06-28 14:40:00,99.8,68.0,29.89,NNW,347,0.0,5.0,36,0.00,,,0.00,weatherlink.com 1.10,2013-06-28 21:40:00,
2013-06-28 14:55:00,100.7,72.0,29.89,North,355,1.0,3.0,39,0.00,,,0.00,weatherlink.com 1.10,2013-06-28 21:55:00,
2013-06-28 15:10:00,101.3,74.0,29.88,WSW,240,2.0,5.0,42,0.00,,,0.00,weatherlink.com 1.10,2013-06-28 22:10:00,
2013-06-28 15:25:00,101.3,70.0,29.88,WSW,256,5.0,6.0,36,0.00,,,0.00,weatherlink.com 1.10,2013-06-28 22:25:00,
2013-06-28 15:40:00,101.0,75.0,29.87,West,270,0.0,5.0,43,0.00,,,0.00,weatherlink.com 1.10,2013-06-28 22:40:00,
2013-06-28 15:55:00,100.8,71.0,29.86,WNW,285,2.0,7.0,38,0.00,,,0.00,weatherlink.com 1.10,2013-06-28 22:55:00,
2013-06-28 16:10:00,99.8,68.0,29.86,WNW,303,2.0,10.0,35,0.00,,,0.00,weatherlink.com 1.10,2013-06-28 23:10:00,
2013-06-28 16:25:00,99.3,72.0,29.85,WSW,250,4.0,8.0,41,0.00,,,0.00,weatherlink.com 1.10,2013-06-28 23:25:00,
2013-06-28 16:40:00,98.7,70.0,29.85,WNW,295,4.0,11.0,39,0.00,,,0.00,weatherlink.com 1.10,2013-06-28 23:40:00,
2013-06-28 16:55:00,98.6,70.0,29.85,NW,311,3.0,9.0,39,0.00,,,0.00,weatherlink.com 1.10,2013-06-28 23:55:00,
2013-06-28 17:10:00,98.0,71.0,29.84,WSW,250,4.0,8.0,41,0.00,,,0.00,weatherlink.com 1.10,2013-06-29 00:10:00,
2013-06-28 17:25:00,97.5,69.0,29.84,West,279,4.0,7.0,40,0.00,,,0.00,weatherlink.com 1.10,2013-06-29 00:25:00,
2013-06-28 17:40:00,97.3,72.0,29.84,West,261,3.0,6.0,44,0.00,,,0.00,weatherlink.com 1.10,2013-06-29 00:40:00,
2013-06-28 17:55:00,97.2,73.0,29.84,West,260,2.0,5.0,45,0.00,,,0.00,weatherlink.com 1.10,2013-06-29 00:55:00,
2013-06-28 18:10:00,97.2,72.0,29.84,West,263,0.0,4.0,44,0.00,,,0.00,weatherlink.com 1.10,2013-06-29 01:10:00,
2013-06-28 18:25:00,96.5,71.0,29.84,West,275,1.0,5.0,44,0.00,,,0.00,weatherlink.com 1.10,2013-06-29 01:25:00,
2013-06-28 18:40:00,95.3,71.0,29.83,West,259,2.0,5.0,45,0.00,,,0.00,weatherlink.com 1.10,2013-06-29 01:40:00,
2013-06-28 18:55:00,93.9,71.0,29.83,WSW,255,1.0,6.0,47,0.00,,,0.00,weatherlink.com 1.10,2013-06-29 01:55:00,
2013-06-28 19:10:00,92.8,70.0,29.83,WSW,258,3.0,6.0,48,0.00,,,0.00,weatherlink.com 1.10,2013-06-29 02:10:00,
2013-06-28 19:25:00,91.3,68.0,29.83,West,260,4.0,6.0,47,0.00,,,0.00,weatherlink.com 1.10,2013-06-29 02:25:00,
2013-06-28 19:40:00,89.6,67.0,29.83,WSW,247,3.0,5.0,47,0.00,,,0.00,weatherlink.com 1.10,2013-06-29 02:40:00,
2013-06-28 19:55:00,88.0,65.0,29.83,West,270,3.0,5.0,46,0.00,,,0.00,weatherlink.com 1.10,2013-06-29 02:55:00,
2013-06-28 20:10:00,86.8,64.0,29.83,WSW,252,5.0,6.0,46,0.00,,,0.00,weatherlink.com 1.10,2013-06-29 03:10:00,
2013-06-28 20:25:00,86.0,62.0,29.83,West,265,3.0,6.0,45,0.00,,,0.00,weatherlink.com 1.10,2013-06-29 03:25:00,
2013-06-28 20:40:00,84.6,62.0,29.83,West,277,3.0,5.0,47,0.00,,,0.00,weatherlink.com 1.10,2013-06-29 03:40:00,
2013-06-28 20:55:00,83.3,63.0,29.83,West,259,1.0,5.0,50,0.00,,,0.00,weatherlink.com 1.10,2013-06-29 03:55:00,
2013-06-28 21:10:00,82.0,62.0,29.83,WSW,243,2.0,4.0,51,0.00,,,0.00,weatherlink.com 1.10,2013-06-29 04:10:00,
2013-06-28 21:25:00,81.0,60.0,29.83,West,266,1.0,6.0,49,0.00,,,0.00,weatherlink.com 1.10,2013-06-29 04:25:00,
2013-06-28 21:40:00,80.5,60.0,29.84,WNW,282,3.0,6.0,49,0.00,,,0.00,weatherlink.com 1.10,2013-06-29 04:40:00,
2013-06-28 21:55:00,80.3,59.0,29.84,West,281,2.0,7.0,48,0.00,,,0.00,weatherlink.com 1.10,2013-06-29 04:55:00,
2013-06-28 22:10:00,80.0,60.0,29.84,WNW,288,3.0,6.0,50,0.00,,,0.00,weatherlink.com 1.10,2013-06-29 05:10:00,
2013-06-28 22:25:00,79.3,59.0,29.84,WNW,296,2.0,5.0,50,0.00,,,0.00,weatherlink.com 1.10,2013-06-29 05:25:00,
2013-06-28 22:40:00,78.5,58.0,29.84,West,262,1.0,6.0,50,0.00,,,0.00,weatherlink.com 1.10,2013-06-29 05:40:00,
2013-06-28 22:55:00,78.1,59.0,29.84,WNW,282,3.0,5.0,52,0.00,,,0.00,weatherlink.com 1.10,2013-06-29 05:55:00,
2013-06-28 23:10:00,77.5,59.0,29.84,West,281,2.0,4.0,53,0.00,,,0.00,weatherlink.com 1.10,2013-06-29 06:10:00,
2013-06-28 23:25:00,76.7,59.0,29.84,West,277,0.0,4.0,54,0.00,,,0.00,weatherlink.com 1.10,2013-06-29 06:25:00,
2013-06-28 23:40:00,75.3,63.0,29.85,West,277,0.0,0.0,65,0.00,,,0.00,weatherlink.com 1.10,2013-06-29 06:40:00,
2013-06-28 23:56:00,72.8,62.0,29.84,West,277,2.0,2.0,69,0.00,,,0.00,weatherlink.com 1.10,2013-06-29 06:56:00,